Time;durP1;ratioP1;P1;durP2;ratioP2;P2;SDS_P1;SDS_P2;PMS_P1;PMS_P2;Temp;Humidity;BMP_temperature;BMP_pressure;BME280_temperature;BME280_humidity;BME280_pressure;Samples;Min_cycle;Max_cycle;Signal;HPM_P1;HPM_P2
2022/11/28 00:00:07;;;;;;;7.50;4.05;;;7.00;87.00;;;;;;5065084;28;20729;-72
2022/11/28 00:02:40;;;;;;;8.90;4.20;;;7.00;87.00;;;;;;5047728;28;20432;-72
2022/11/28 00:05:10;;;;;;;8.43;4.07;;;7.00;87.10;;;;;;5048108;28;20045;-72
2022/11/28 00:07:37;;;;;;;8.18;3.97;;;7.00;87.10;;;;;;5049387;28;20058;-72
2022/11/28 00:10:07;;;;;;;8.07;4.00;;;7.00;87.10;;;;;;5047912;28;20107;-72
2022/11/28 00:12:34;;;;;;;8.38;3.65;;;7.00;87.10;;;;;;5046874;28;20276;-72
2022/11/28 00:15:01;;;;;;;9.00;4.47;;;7.00;87.00;;;;;;5049224;28;20139;-72
2022/11/28 00:17:28;;;;;;;9.35;4.10;;;7.00;87.00;;;;;;5048203;28;20454;-72
2022/11/28 00:19:56;;;;;;;7.78;3.55;;;7.00;86.90;;;;;;5048102;28;20604;-72
2022/11/28 00:22:23;;;;;;;7.43;4.03;;;7.00;87.00;;;;;;5036073;28;20057;-72
2022/11/28 00:24:50;;;;;;;10.45;4.25;;;6.90;87.00;;;;;;5051336;28;20747;-72
2022/11/28 00:27:18;;;;;;;8.32;4.05;;;6.90;87.00;;;;;;5052566;28;20073;-72
2022/11/28 00:29:45;;;;;;;6.22;3.45;;;7.00;86.90;;;;;;5049207;28;20192;-72
2022/11/28 00:32:13;;;;;;;7.57;3.75;;;6.90;87.00;;;;;;5052291;28;20483;-72
2022/11/28 00:34:40;;;;;;;7.90;4.40;;;7.00;87.00;;;;;;5051994;28;20045;-73
2022/11/28 00:37:07;;;;;;;7.18;3.70;;;7.00;87.00;;;;;;5033921;28;20324;-72
2022/11/28 00:39:34;;;;;;;7.75;3.80;;;7.00;87.00;;;;;;5051518;28;20706;-72
2022/11/28 00:42:01;;;;;;;7.72;3.72;;;7.00;86.90;;;;;;5051163;28;20140;-72
2022/11/28 00:44:29;;;;;;;9.15;4.10;;;7.00;86.90;;;;;;5049450;28;20061;-72
2022/11/28 00:46:56;;;;;;;7.93;4.10;;;7.00;87.00;;;;;;5047699;28;20052;-72
2022/11/28 00:49:23;;;;;;;8.23;3.97;;;7.00;86.90;;;;;;5049505;28;20808;-72
2022/11/28 00:51:50;;;;;;;8.30;3.88;;;7.00;87.00;;;;;;5050799;28;20822;-72
2022/11/28 00:54:18;;;;;;;7.85;4.07;;;7.00;87.00;;;;;;5050529;28;20049;-72
2022/11/28 00:56:45;;;;;;;7.22;4.00;;;7.00;87.00;;;;;;5050793;28;20115;-72
2022/11/28 00:59:12;;;;;;;9.53;4.40;;;7.00;87.00;;;;;;5067623;28;21023;-72
2022/11/28 01:01:43;;;;;;;8.43;4.10;;;7.00;87.00;;;;;;5052261;28;20443;-72
2022/11/28 01:04:12;;;;;;;8.65;4.13;;;7.00;86.90;;;;;;5065561;28;20045;-72
2022/11/28 01:06:41;;;;;;;9.43;3.92;;;7.00;86.90;;;;;;5050625;28;20060;-72
2022/11/28 01:09:10;;;;;;;7.00;3.60;;;7.10;86.80;;;;;;5050261;28;20055;-72
2022/11/28 01:11:38;;;;;;;7.33;3.60;;;7.10;86.80;;;;;;5050643;28;20103;-72
2022/11/28 01:14:05;;;;;;;7.88;4.00;;;7.10;86.70;;;;;;5030682;28;20276;-72
2022/11/28 01:16:32;;;;;;;7.05;3.75;;;7.10;86.70;;;;;;5030837;28;20049;-72
2022/11/28 01:19:01;;;;;;;8.75;3.90;;;7.10;86.70;;;;;;5046569;28;20046;-72
2022/11/28 01:21:28;;;;;;;7.72;3.63;;;7.10;86.60;;;;;;5035427;28;20771;-72
2022/11/28 01:23:56;;;;;;;7.57;3.47;;;7.20;86.50;;;;;;5050155;28;20125;-72
2022/11/28 01:26:26;;;;;;;7.15;3.67;;;7.20;86.50;;;;;;5051858;28;20387;-72
2022/11/28 01:28:53;;;;;;;8.88;3.50;;;7.10;86.50;;;;;;5050019;28;20053;-72
2022/11/28 01:31:23;;;;;;;7.78;4.50;;;7.20;86.40;;;;;;5063254;28;20052;-72
2022/11/28 01:33:50;;;;;;;9.20;4.13;;;7.20;86.40;;;;;;5031358;28;20097;-72
2022/11/28 01:36:20;;;;;;;9.90;4.13;;;7.20;86.40;;;;;;5063378;28;20991;-72
2022/11/28 01:38:47;;;;;;;9.07;4.30;;;7.20;86.40;;;;;;5048257;28;20273;-72
2022/11/28 01:41:16;;;;;;;10.95;4.65;;;7.20;86.40;;;;;;5049927;28;20136;-72
2022/11/28 01:44:03;;;;;;;9.27;4.10;;;7.20;86.50;;;;;;5050315;28;20144;-72
2022/11/28 01:46:30;;;;;;;8.52;3.88;;;7.20;86.50;;;;;;5051219;28;20054;-72
2022/11/28 01:49:01;;;;;;;9.93;4.37;;;7.20;86.50;;;;;;5049812;28;20045;-72
2022/11/28 01:51:30;;;;;;;8.80;3.75;;;7.20;86.50;;;;;;5051224;28;20359;-72
2022/11/28 01:53:57;;;;;;;8.70;4.10;;;7.20;86.60;;;;;;5049837;28;20038;-72
2022/11/28 01:56:28;;;;;;;9.00;3.67;;;7.20;86.60;;;;;;5044964;28;20133;-72
2022/11/28 01:58:59;;;;;;;8.70;4.03;;;7.20;86.70;;;;;;5030066;28;20633;-72
2022/11/28 02:01:27;;;;;;;10.73;4.30;;;7.20;86.60;;;;;;5038392;28;20506;-72
2022/11/28 02:03:55;;;;;;;8.60;4.63;;;7.20;86.80;;;;;;5049925;28;21547;-72
2022/11/28 02:06:24;;;;;;;8.45;3.75;;;7.20;86.70;;;;;;5052772;28;20061;-72
2022/11/28 02:08:54;;;;;;;7.72;3.30;;;7.20;86.70;;;;;;5049440;28;20472;-72
2022/11/28 02:11:40;;;;;;;8.75;4.55;;;7.20;86.80;;;;;;5046438;28;20061;-72
2022/11/28 02:14:18;;;;;;;7.77;3.53;;;7.20;86.70;;;;;;5038653;28;20582;-72
2022/11/28 02:16:57;;;;;;;7.40;3.28;;;7.20;86.70;;;;;;5039988;28;20376;-72
2022/11/28 02:19:56;;;;;;;10.02;4.68;;;7.20;86.90;;;;;;5050866;28;20137;-72
2022/11/28 02:22:29;;;;;;;7.35;4.05;;;7.20;86.80;;;;;;5049598;28;20041;-72
2022/11/28 02:25:14;;;;;;;8.82;4.30;;;7.20;86.80;;;;;;5032172;28;20046;-72
2022/11/28 02:28:12;;;;;;;7.37;3.97;;;7.20;86.70;;;;;;5047025;28;20064;-72
2022/11/28 02:30:52;;;;;;;10.43;4.22;;;7.20;86.70;;;;;;5048347;28;20259;-72
2022/11/28 02:33:25;;;;;;;9.70;4.68;;;7.30;86.80;;;;;;5049728;28;20056;-72
2022/11/28 02:36:06;;;;;;;10.55;4.25;;;7.30;86.80;;;;;;5131306;22;20064;-73
2022/11/28 02:38:46;;;;;;;8.45;4.22;;;7.30;86.80;;;;;;5070325;28;20132;-72
2022/11/28 02:41:21;;;;;;;9.13;4.80;;;7.30;86.80;;;;;;5070447;28;20059;-72
2022/11/28 02:43:55;;;;;;;7.75;3.90;;;7.40;86.90;;;;;;5069329;28;20340;-72
2022/11/28 02:46:29;;;;;;;8.73;4.03;;;7.30;86.90;;;;;;5070379;28;20112;-72
2022/11/28 02:49:01;;;;;;;7.55;4.22;;;7.40;86.90;;;;;;5050294;28;20059;-72
2022/11/28 02:51:31;;;;;;;10.40;4.70;;;7.40;86.90;;;;;;5052213;28;20465;-72
2022/11/28 02:54:00;;;;;;;12.23;4.70;;;7.40;86.90;;;;;;5068871;28;20049;-72
2022/11/28 02:56:28;;;;;;;9.88;4.50;;;7.40;86.90;;;;;;5071048;28;20264;-72
2022/11/28 02:58:55;;;;;;;9.70;4.97;;;7.40;87.00;;;;;;5070036;28;20139;-72
2022/11/28 03:01:27;;;;;;;9.38;4.93;;;7.40;87.00;;;;;;5052190;28;20048;-72
2022/11/28 03:04:08;;;;;;;12.27;5.95;;;7.40;87.10;;;;;;5052243;28;20055;-72
2022/11/28 03:06:45;;;;;;;10.93;5.47;;;7.50;87.20;;;;;;5057347;28;20050;-72
2022/11/28 03:09:36;;;;;;;9.27;5.05;;;7.50;87.10;;;;;;5051605;28;20358;-72
2022/11/28 03:12:15;;;;;;;8.88;4.60;;;7.50;87.20;;;;;;5052140;28;20057;-72
2022/11/28 03:14:50;;;;;;;10.75;5.82;;;7.50;87.20;;;;;;5064074;28;20562;-72
2022/11/28 03:17:27;;;;;;;9.90;5.70;;;7.50;87.20;;;;;;5070077;28;20049;-72
2022/11/28 03:20:06;;;;;;;13.83;6.80;;;7.50;87.30;;;;;;5048205;28;20148;-72
2022/11/28 03:22:42;;;;;;;12.25;5.95;;;7.50;87.30;;;;;;5049485;28;20315;-72
2022/11/28 03:25:17;;;;;;;10.15;6.07;;;7.50;87.40;;;;;;5048421;28;20140;-72
2022/11/28 03:27:48;;;;;;;11.15;6.10;;;7.50;87.50;;;;;;5048862;28;20050;-72
2022/11/28 03:30:20;;;;;;;11.32;5.95;;;7.50;87.50;;;;;;5051642;28;20060;-72
2022/11/28 03:32:52;;;;;;;11.43;6.60;;;7.50;87.70;;;;;;5049158;28;20049;-72
2022/11/28 03:35:23;;;;;;;12.52;6.28;;;7.50;87.80;;;;;;5051490;28;21008;-72
2022/11/28 03:37:54;;;;;;;11.80;6.28;;;7.50;87.70;;;;;;5068858;28;20652;-72
2022/11/28 03:40:25;;;;;;;13.65;7.30;;;7.50;87.90;;;;;;5047045;28;20084;-72
2022/11/28 03:42:58;;;;;;;11.63;6.10;;;7.60;87.90;;;;;;5049770;28;20109;-73
2022/11/28 03:45:29;;;;;;;11.60;6.30;;;7.60;88.00;;;;;;5050492;28;20092;-72
2022/11/28 03:48:00;;;;;;;10.98;6.28;;;7.60;88.00;;;;;;5051671;28;20265;-72
2022/11/28 03:50:34;;;;;;;11.25;5.95;;;7.60;88.10;;;;;;5050911;28;20529;-72
2022/11/28 03:53:04;;;;;;;12.10;7.10;;;7.60;88.10;;;;;;5069109;28;20045;-72
2022/11/28 03:55:39;;;;;;;12.07;6.72;;;7.60;88.20;;;;;;5051171;28;20049;-72
2022/11/28 03:58:11;;;;;;;13.73;7.20;;;7.60;88.30;;;;;;5048453;28;20088;-72
2022/11/28 04:00:47;;;;;;;10.82;6.53;;;7.60;88.30;;;;;;5070247;28;20897;-72
2022/11/28 04:03:24;;;;;;;12.35;7.20;;;7.60;88.50;;;;;;5073501;28;20053;-72
2022/11/28 04:05:57;;;;;;;11.18;6.25;;;7.70;88.50;;;;;;5054187;28;20128;-72
2022/11/28 04:08:29;;;;;;;14.82;7.80;;;7.70;88.50;;;;;;5054551;28;20103;-72
2022/11/28 04:11:02;;;;;;;12.87;7.93;;;7.70;88.60;;;;;;5072499;28;20061;-72
2022/11/28 04:13:35;;;;;;;12.63;6.93;;;7.70;88.60;;;;;;5055075;28;20240;-72
2022/11/28 04:16:08;;;;;;;11.90;6.90;;;7.70;88.70;;;;;;5053691;28;20060;-72
2022/11/28 04:18:45;;;;;;;14.13;7.80;;;7.70;88.70;;;;;;5055041;28;20041;-72
2022/11/28 04:21:20;;;;;;;14.18;8.25;;;7.70;88.80;;;;;;5071134;28;20073;-72
2022/11/28 04:23:49;;;;;;;14.63;7.97;;;7.70;88.80;;;;;;5073160;28;20092;-72
2022/11/28 04:26:19;;;;;;;14.35;8.30;;;7.80;88.90;;;;;;5054537;28;20248;-72
2022/11/28 04:28:48;;;;;;;12.85;7.88;;;7.80;88.90;;;;;;5072601;28;20155;-72
2022/11/28 04:31:17;;;;;;;11.77;5.88;;;7.80;89.00;;;;;;5072461;28;20140;-72
2022/11/28 04:33:47;;;;;;;13.95;7.40;;;7.80;89.20;;;;;;5052985;28;20044;-72
2022/11/28 04:36:20;;;;;;;11.77;7.13;;;7.80;89.20;;;;;;5063210;28;20135;-72
2022/11/28 04:38:55;;;;;;;12.73;8.05;;;7.80;89.30;;;;;;5017655;28;20332;-72
2022/11/28 04:41:26;;;;;;;12.15;7.43;;;7.80;89.30;;;;;;5052606;28;20050;-73
2022/11/28 04:44:08;;;;;;;15.65;8.90;;;7.80;89.30;;;;;;5066834;28;20053;-73
2022/11/28 04:46:40;;;;;;;13.90;8.45;;;7.80;89.30;;;;;;5072260;28;20077;-72
2022/11/28 04:49:07;;;;;;;12.63;8.40;;;7.80;89.40;;;;;;5054509;28;20049;-73
2022/11/28 04:51:42;;;;;;;13.57;8.20;;;7.80;89.60;;;;;;5055496;28;20739;-72
2022/11/28 04:54:14;;;;;;;13.82;8.30;;;7.80;89.60;;;;;;5050861;28;20519;-72
2022/11/28 04:56:45;;;;;;;14.70;9.05;;;7.80;89.60;;;;;;5069228;28;20053;-72
2022/11/28 04:59:14;;;;;;;14.43;9.27;;;7.90;89.70;;;;;;5071991;28;20529;-72
2022/11/28 05:01:44;;;;;;;14.23;8.90;;;7.80;89.70;;;;;;5053877;28;20125;-72
2022/11/28 05:04:12;;;;;;;16.48;9.57;;;7.90;89.70;;;;;;5072586;28;20278;-73
2022/11/28 05:06:40;;;;;;;13.27;7.45;;;7.90;89.80;;;;;;5072138;28;20142;-72
2022/11/28 05:09:09;;;;;;;13.82;8.25;;;7.90;90.00;;;;;;5051010;28;20043;-72
2022/11/28 05:11:36;;;;;;;12.80;8.40;;;8.00;90.00;;;;;;5053220;28;21025;-72
2022/11/28 05:14:03;;;;;;;15.63;9.83;;;8.00;90.00;;;;;;5053529;28;20122;-72
2022/11/28 05:16:30;;;;;;;16.13;10.38;;;8.00;90.00;;;;;;5064909;28;20270;-72
2022/11/28 05:18:57;;;;;;;15.98;10.20;;;8.00;90.20;;;;;;5053613;28;20822;-72
2022/11/28 05:21:25;;;;;;;14.38;9.50;;;8.00;90.10;;;;;;5071714;28;20052;-72
2022/11/28 05:23:53;;;;;;;15.45;8.55;;;8.00;90.10;;;;;;5072175;28;20135;-72
2022/11/28 05:26:21;;;;;;;15.00;8.70;;;8.00;90.10;;;;;;5070251;28;20130;-73
2022/11/28 05:28:50;;;;;;;15.85;8.35;;;8.00;90.20;;;;;;5069931;28;20249;-72
2022/11/28 05:31:18;;;;;;;14.55;9.02;;;8.00;90.10;;;;;;5071414;28;20052;-72
2022/11/28 05:33:45;;;;;;;14.23;8.43;;;8.00;90.10;;;;;;5053635;28;20579;-72
2022/11/28 05:36:14;;;;;;;15.43;7.45;;;8.00;90.10;;;;;;5052600;28;20060;-72
2022/11/28 05:38:41;;;;;;;13.67;8.13;;;8.00;90.10;;;;;;5053601;28;20045;-72
2022/11/28 05:41:17;;;;;;;13.88;8.68;;;8.00;90.20;;;;;;5053250;28;20296;-73
2022/11/28 05:43:44;;;;;;;13.05;7.97;;;8.00;90.20;;;;;;5065986;28;20103;-72
2022/11/28 05:46:11;;;;;;;13.30;7.30;;;8.00;90.30;;;;;;5036811;28;20133;-72
2022/11/28 05:48:39;;;;;;;13.25;7.82;;;8.10;90.40;;;;;;5052449;28;20045;-72
2022/11/28 05:51:06;;;;;;;12.53;7.90;;;8.10;90.20;;;;;;5057369;28;20589;-72
2022/11/28 05:53:34;;;;;;;11.45;6.40;;;8.10;90.20;;;;;;5052210;28;20320;-73
2022/11/28 05:56:06;;;;;;;14.57;8.25;;;8.10;90.30;;;;;;5053233;28;20050;-72
2022/11/28 05:58:35;;;;;;;14.02;7.90;;;8.10;90.20;;;;;;5053066;28;20095;-72
2022/11/28 06:01:09;;;;;;;13.20;8.80;;;8.10;90.20;;;;;;5050640;28;20059;-72
2022/11/28 06:03:36;;;;;;;14.10;8.70;;;8.10;90.20;;;;;;5053128;28;20044;-72
2022/11/28 06:06:04;;;;;;;13.02;6.35;;;8.10;90.20;;;;;;5052470;28;20287;-72
2022/11/28 06:08:31;;;;;;;13.55;7.95;;;8.10;90.30;;;;;;5052862;28;20045;-72
2022/11/28 06:10:59;;;;;;;13.45;8.63;;;8.10;90.20;;;;;;5040161;28;20139;-72
2022/11/28 06:13:26;;;;;;;14.55;8.98;;;8.10;90.30;;;;;;5050366;28;20049;-72
2022/11/28 06:16:01;;;;;;;12.13;7.57;;;8.10;90.30;;;;;;5034867;28;20057;-72
2022/11/28 06:18:28;;;;;;;13.02;8.38;;;8.10;90.30;;;;;;5039647;28;20765;-72
2022/11/28 06:20:55;;;;;;;13.70;8.73;;;8.10;90.40;;;;;;5050072;28;20136;-72
2022/11/28 06:23:23;;;;;;;12.88;8.00;;;8.10;90.20;;;;;;5061200;28;20045;-72
2022/11/28 06:25:50;;;;;;;13.70;8.77;;;8.10;90.10;;;;;;5053060;28;20053;-72
2022/11/28 06:28:17;;;;;;;12.47;8.27;;;8.10;90.40;;;;;;5051973;28;20143;-72
2022/11/28 06:30:44;;;;;;;15.18;9.15;;;8.10;90.20;;;;;;5070787;28;20367;-72
2022/11/28 06:33:12;;;;;;;14.30;8.98;;;8.20;90.30;;;;;;5061390;28;20061;-72
2022/11/28 06:35:39;;;;;;;14.32;8.63;;;8.20;90.10;;;;;;5026879;28;20132;-72
2022/11/28 06:38:06;;;;;;;12.23;6.82;;;8.20;90.10;;;;;;5052934;28;20053;-73
2022/11/28 06:40:33;;;;;;;11.43;6.13;;;8.10;90.10;;;;;;5069021;28;20113;-72
2022/11/28 06:43:01;;;;;;;13.23;8.48;;;8.10;90.10;;;;;;5070778;28;20267;-72
2022/11/28 06:45:28;;;;;;;15.30;8.88;;;8.20;90.10;;;;;;5052515;28;20128;-72
2022/11/28 06:47:55;;;;;;;12.25;7.15;;;8.10;90.10;;;;;;5052465;28;20498;-72
2022/11/28 06:50:23;;;;;;;15.23;9.25;;;8.20;90.10;;;;;;5052033;28;20106;-72
2022/11/28 06:52:50;;;;;;;14.03;8.47;;;8.20;90.10;;;;;;5032754;28;20044;-72
2022/11/28 06:55:17;;;;;;;14.18;9.55;;;8.10;90.20;;;;;;5049027;28;20729;-72
2022/11/28 06:57:44;;;;;;;14.32;8.98;;;8.20;90.20;;;;;;5050539;28;20077;-72
2022/11/28 07:00:12;;;;;;;14.63;8.43;;;8.20;90.10;;;;;;5074739;28;20882;-72
2022/11/28 07:02:39;;;;;;;14.27;7.70;;;8.20;90.10;;;;;;5060066;28;20045;-72
2022/11/28 07:05:08;;;;;;;11.50;6.63;;;8.20;90.10;;;;;;5058019;28;20106;-72
2022/11/28 07:07:36;;;;;;;12.60;7.20;;;8.20;90.10;;;;;;5061717;28;20266;-72
2022/11/28 07:10:04;;;;;;;13.07;7.82;;;8.20;90.10;;;;;;5068224;28;20114;-72
2022/11/28 07:12:31;;;;;;;10.82;6.97;;;8.20;90.20;;;;;;5054348;28;20056;-73
2022/11/28 07:14:59;;;;;;;12.07;7.20;;;8.20;90.20;;;;;;5055223;28;20111;-72
2022/11/28 07:17:26;;;;;;;10.57;6.67;;;8.20;90.10;;;;;;5057065;28;20037;-72
2022/11/28 07:19:53;;;;;;;12.18;6.53;;;8.20;90.10;;;;;;5068038;28;20386;-72
2022/11/28 07:22:21;;;;;;;12.25;7.80;;;8.20;90.10;;;;;;5050863;28;20071;-72
2022/11/28 07:24:49;;;;;;;10.55;7.20;;;8.20;90.20;;;;;;5069416;28;20060;-72
2022/11/28 07:27:16;;;;;;;10.27;7.10;;;8.20;90.20;;;;;;5034813;28;20049;-72
2022/11/28 07:29:43;;;;;;;11.47;6.40;;;8.20;90.00;;;;;;5067021;28;20077;-72
2022/11/28 07:32:10;;;;;;;10.70;6.78;;;8.20;90.10;;;;;;5050765;28;20270;-72
2022/11/28 07:34:38;;;;;;;10.05;5.55;;;8.20;90.00;;;;;;5037363;28;20053;-72
2022/11/28 07:37:05;;;;;;;11.00;6.50;;;8.20;90.10;;;;;;5051791;28;20052;-72
2022/11/28 07:39:32;;;;;;;9.73;5.90;;;8.20;90.10;;;;;;5059681;28;20081;-72
2022/11/28 07:42:00;;;;;;;9.60;5.00;;;8.20;90.30;;;;;;5070641;28;20056;-72
2022/11/28 07:44:27;;;;;;;10.57;6.05;;;8.30;90.20;;;;;;5066572;28;20287;-72
2022/11/28 07:46:54;;;;;;;9.98;6.05;;;8.30;90.00;;;;;;5065022;28;20524;-72
2022/11/28 07:49:22;;;;;;;9.75;5.65;;;8.20;90.00;;;;;;5054968;28;20142;-72
2022/11/28 07:51:58;;;;;;;9.77;5.55;;;8.20;90.20;;;;;;5054047;28;20183;-72
2022/11/28 07:54:25;;;;;;;9.37;5.60;;;8.20;90.10;;;;;;5065132;28;20148;-72
2022/11/28 07:56:52;;;;;;;10.15;5.57;;;8.20;90.00;;;;;;5072083;28;20271;-72
2022/11/28 07:59:20;;;;;;;9.25;5.10;;;8.20;90.20;;;;;;5063677;28;20047;-72
2022/11/28 08:01:47;;;;;;;9.48;5.57;;;8.20;90.30;;;;;;5071288;28;20147;-72
2022/11/28 08:04:14;;;;;;;8.50;5.03;;;8.20;90.20;;;;;;5052046;28;20049;-72
2022/11/28 08:06:43;;;;;;;9.53;5.00;;;8.20;90.20;;;;;;5064821;28;20938;-72
2022/11/28 08:09:11;;;;;;;8.48;4.97;;;8.20;90.30;;;;;;5054418;28;20282;-72
2022/11/28 08:11:38;;;;;;;7.97;4.72;;;8.20;90.30;;;;;;5073016;28;20049;-72
2022/11/28 08:14:06;;;;;;;8.63;4.70;;;8.20;90.30;;;;;;5057137;28;20481;-72
2022/11/28 08:16:35;;;;;;;6.93;4.15;;;8.20;90.30;;;;;;5065297;28;20120;-72
2022/11/28 08:19:03;;;;;;;7.63;4.50;;;8.30;90.40;;;;;;5084908;28;20092;-71
2022/11/28 08:21:32;;;;;;;8.50;4.60;;;8.30;90.40;;;;;;5078549;28;20347;-72
2022/11/28 08:24:01;;;;;;;8.48;5.05;;;8.30;90.40;;;;;;5047558;28;20045;-72
2022/11/28 08:26:29;;;;;;;7.10;4.57;;;8.30;90.50;;;;;;5075135;28;20044;-72
2022/11/28 08:28:57;;;;;;;7.13;4.13;;;8.30;90.40;;;;;;5055040;28;20049;-72
2022/11/28 08:31:27;;;;;;;7.83;4.80;;;8.30;90.40;;;;;;5058245;28;20049;-72
2022/11/28 08:33:57;;;;;;;6.43;3.78;;;8.30;90.40;;;;;;5050866;28;21256;-72
2022/11/28 08:36:28;;;;;;;7.50;4.70;;;8.20;90.40;;;;;;5051082;28;20061;-72
2022/11/28 08:38:55;;;;;;;7.78;4.45;;;8.30;90.50;;;;;;5058513;28;20080;-71
2022/11/28 08:41:23;;;;;;;8.77;4.95;;;8.20;90.50;;;;;;5070388;28;20052;-73
2022/11/28 08:43:51;;;;;;;8.73;5.00;;;8.30;90.70;;;;;;5053799;28;20052;-72
2022/11/28 08:46:20;;;;;;;6.45;3.97;;;8.30;90.60;;;;;;5062817;28;20619;-72
2022/11/28 08:48:49;;;;;;;6.95;4.10;;;8.30;90.60;;;;;;5044257;28;20048;-72
2022/11/28 08:51:19;;;;;;;8.52;4.50;;;8.30;90.60;;;;;;5055455;28;20081;-72
2022/11/28 08:53:47;;;;;;;8.75;4.50;;;8.30;90.60;;;;;;5077027;28;20075;-72
2022/11/28 08:56:14;;;;;;;7.67;4.57;;;8.30;90.60;;;;;;5041404;28;20045;-72
2022/11/28 08:58:41;;;;;;;8.07;4.20;;;8.30;90.60;;;;;;5049706;28;20298;-72
2022/11/28 09:01:15;;;;;;;6.70;3.63;;;8.30;90.70;;;;;;5049514;28;20227;-72
2022/11/28 09:03:42;;;;;;;7.50;4.50;;;8.30;90.70;;;;;;5059782;28;20266;-72
2022/11/28 09:06:09;;;;;;;7.45;4.00;;;8.30;90.60;;;;;;5058372;28;20128;-72
2022/11/28 09:08:37;;;;;;;7.10;4.00;;;8.30;90.60;;;;;;5069931;28;20856;-72
2022/11/28 09:11:06;;;;;;;7.28;4.13;;;8.30;90.60;;;;;;5054125;28;20347;-72
2022/11/28 09:13:33;;;;;;;7.38;3.85;;;8.30;90.70;;;;;;5081171;28;20054;-72
2022/11/28 09:16:01;;;;;;;7.65;4.20;;;8.30;90.70;;;;;;5034151;28;20125;-72
2022/11/28 09:18:28;;;;;;;7.55;4.50;;;8.30;90.70;;;;;;5045910;28;21070;-72
2022/11/28 09:20:58;;;;;;;7.40;3.83;;;8.30;90.80;;;;;;5069714;28;20057;-72
2022/11/28 09:23:25;;;;;;;6.20;3.88;;;8.30;90.80;;;;;;5064908;28;20334;-72
2022/11/28 09:25:53;;;;;;;6.45;3.60;;;8.30;90.90;;;;;;5067637;28;20537;-72
2022/11/28 09:28:21;;;;;;;7.72;4.75;;;8.30;90.90;;;;;;5045672;28;20135;-72
2022/11/28 09:30:48;;;;;;;7.65;4.65;;;8.30;90.90;;;;;;5071826;28;20053;-72
2022/11/28 09:33:15;;;;;;;7.10;4.60;;;8.30;91.10;;;;;;5036748;28;20063;-72
2022/11/28 09:35:42;;;;;;;8.00;4.20;;;8.40;91.00;;;;;;5067501;28;21004;-72
2022/11/28 09:38:09;;;;;;;6.90;4.10;;;8.40;91.00;;;;;;5064345;28;20144;-72
2022/11/28 09:40:39;;;;;;;7.30;3.85;;;8.40;90.90;;;;;;5078609;28;20052;-72
2022/11/28 09:43:14;;;;;;;7.63;3.30;;;8.40;90.90;;;;;;5053153;28;20124;-72
2022/11/28 09:45:43;;;;;;;7.63;4.07;;;8.40;91.00;;;;;;5071646;28;20116;-72
2022/11/28 09:48:25;;;;;;;6.60;3.67;;;8.40;90.90;;;;;;5049628;28;20304;-72
2022/11/28 09:50:58;;;;;;;7.53;4.20;;;8.40;90.90;;;;;;5080012;28;20048;-72
2022/11/28 09:53:30;;;;;;;7.78;4.63;;;8.40;91.00;;;;;;5066281;28;20479;-72
2022/11/28 09:56:01;;;;;;;7.90;4.57;;;8.40;91.10;;;;;;5076402;28;20049;-72
2022/11/28 09:58:36;;;;;;;8.60;5.10;;;8.40;91.10;;;;;;5053175;28;20080;-72
2022/11/28 10:01:14;;;;;;;6.90;4.28;;;8.40;91.10;;;;;;5050129;28;20257;-72
2022/11/28 10:03:44;;;;;;;8.35;4.80;;;8.40;91.00;;;;;;5079443;28;20211;-71
2022/11/28 10:06:18;;;;;;;7.90;4.65;;;8.40;91.10;;;;;;5079071;28;20053;-72
2022/11/28 10:09:01;;;;;;;7.97;4.63;;;8.40;91.10;;;;;;5076166;28;20099;-72
2022/11/28 10:11:44;;;;;;;7.20;4.20;;;8.50;91.10;;;;;;5058605;28;20049;-72
2022/11/28 10:14:33;;;;;;;7.03;4.13;;;8.50;91.10;;;;;;5073558;28;20259;-72
2022/11/28 10:17:14;;;;;;;7.22;4.15;;;8.50;91.00;;;;;;5078950;22;20081;-72
2022/11/28 10:19:46;;;;;;;8.32;4.55;;;8.50;91.00;;;;;;5026113;28;20050;-72
2022/11/28 10:22:18;;;;;;;8.05;5.00;;;8.50;91.10;;;;;;5027792;28;20050;-72
2022/11/28 10:24:51;;;;;;;7.47;4.30;;;8.50;91.20;;;;;;5028362;28;20092;-72
2022/11/28 10:27:19;;;;;;;7.35;4.43;;;8.50;91.20;;;;;;5028453;28;20337;-72
2022/11/28 10:29:52;;;;;;;7.90;4.88;;;8.50;91.10;;;;;;5030567;28;20060;-72
2022/11/28 10:32:25;;;;;;;7.32;4.32;;;8.50;91.20;;;;;;5035066;28;20050;-73
2022/11/28 10:35:00;;;;;;;7.30;4.13;;;8.50;91.10;;;;;;5028196;28;20049;-72
2022/11/28 10:37:29;;;;;;;7.63;3.90;;;8.50;91.30;;;;;;5028133;28;20063;-72
2022/11/28 10:40:02;;;;;;;7.35;4.22;;;8.50;91.20;;;;;;5023275;28;20380;-72
2022/11/28 10:42:40;;;;;;;8.07;4.30;;;8.60;91.20;;;;;;5002555;28;20054;-72
2022/11/28 10:45:20;;;;;;;7.22;4.30;;;8.60;91.20;;;;;;5027791;28;20053;-72
2022/11/28 10:48:08;;;;;;;7.45;3.95;;;8.60;91.20;;;;;;5041394;28;20542;-72
2022/11/28 10:50:45;;;;;;;7.20;4.23;;;8.60;91.20;;;;;;5010314;28;20058;-72
2022/11/28 10:53:35;;;;;;;7.70;4.30;;;8.60;91.20;;;;;;5027537;28;20283;-73
2022/11/28 10:56:13;;;;;;;7.22;4.15;;;8.60;91.20;;;;;;5030650;28;20049;-73
2022/11/28 10:58:50;;;;;;;6.82;3.80;;;8.60;91.20;;;;;;5030494;28;20488;-73
2022/11/28 11:01:18;;;;;;;6.68;3.58;;;8.60;91.30;;;;;;5026341;28;20046;-72
2022/11/28 11:03:45;;;;;;;7.17;3.60;;;8.60;91.20;;;;;;5017643;28;20142;-72
2022/11/28 11:06:12;;;;;;;6.78;4.07;;;8.60;91.30;;;;;;5020374;28;20744;-72
2022/11/28 11:08:41;;;;;;;7.50;4.00;;;8.60;91.20;;;;;;5056412;28;20050;-72
2022/11/28 11:11:22;;;;;;;7.25;4.00;;;8.60;91.20;;;;;;5024597;28;20046;-72
2022/11/28 11:13:59;;;;;;;7.15;4.10;;;8.60;91.20;;;;;;5020284;28;20050;-71
2022/11/28 11:16:47;;;;;;;7.20;4.00;;;8.70;91.30;;;;;;5018721;28;20407;-72
2022/11/28 11:19:25;;;;;;;6.68;4.03;;;8.70;91.30;;;;;;5026369;28;20762;-72
2022/11/28 11:22:01;;;;;;;6.40;3.72;;;8.70;91.20;;;;;;5026473;28;20082;-72
2022/11/28 11:24:29;;;;;;;7.78;4.65;;;8.80;91.30;;;;;;5024767;28;20050;-72
2022/11/28 11:27:12;;;;;;;6.50;3.75;;;8.80;91.20;;;;;;5028425;28;20085;-72
2022/11/28 11:29:40;;;;;;;6.53;3.67;;;8.80;91.20;;;;;;5023409;28;20053;-72
2022/11/28 11:32:20;;;;;;;7.13;3.90;;;8.80;91.20;;;;;;5027280;28;20296;-72
2022/11/28 11:34:47;;;;;;;7.85;4.05;;;8.80;91.20;;;;;;5023074;28;20059;-72
2022/11/28 11:37:21;;;;;;;7.88;4.10;;;8.80;91.20;;;;;;5028143;28;20096;-72
2022/11/28 11:39:50;;;;;;;7.35;4.25;;;8.80;91.30;;;;;;5023958;28;20057;-72
2022/11/28 11:42:21;;;;;;;7.60;4.27;;;8.80;91.20;;;;;;5036786;28;20158;-72
2022/11/28 11:44:49;;;;;;;7.63;4.68;;;8.90;91.30;;;;;;5025038;28;20384;-72
2022/11/28 11:47:18;;;;;;;6.40;3.83;;;8.90;91.20;;;;;;5027812;28;20081;-72
2022/11/28 11:49:47;;;;;;;7.50;4.65;;;8.90;91.20;;;;;;5036157;28;20057;-72
2022/11/28 11:52:20;;;;;;;7.65;4.40;;;8.90;91.20;;;;;;5022744;28;20492;-72
2022/11/28 11:55:02;;;;;;;6.90;3.90;;;8.90;91.20;;;;;;5027524;28;20470;-73
2022/11/28 11:57:33;;;;;;;6.97;4.10;;;8.90;91.20;;;;;;5024396;28;20284;-73
2022/11/28 12:00:05;;;;;;;6.80;4.25;;;8.90;91.20;;;;;;5027780;28;20116;-73
2022/11/28 12:02:44;;;;;;;7.88;4.45;;;8.90;91.20;;;;;;5028068;28;20054;-72
2022/11/28 12:05:15;;;;;;;7.18;4.30;;;8.90;91.20;;;;;;5028423;28;20057;-72
2022/11/28 12:07:49;;;;;;;7.53;4.47;;;8.90;91.20;;;;;;5010209;28;20156;-73
2022/11/28 12:10:21;;;;;;;8.15;4.88;;;9.00;91.20;;;;;;5028200;28;20254;-72
2022/11/28 12:12:48;;;;;;;7.53;4.30;;;9.00;91.20;;;;;;5025629;28;20054;-72
2022/11/28 12:15:19;;;;;;;7.45;4.57;;;9.00;91.20;;;;;;5028392;28;20057;-71
2022/11/28 12:18:01;;;;;;;7.50;4.35;;;9.00;91.20;;;;;;5024261;28;20137;-71
2022/11/28 12:20:48;;;;;;;7.83;4.10;;;9.00;91.10;;;;;;5031048;28;20050;-71
2022/11/28 12:23:31;;;;;;;6.82;4.25;;;9.00;91.10;;;;;;5030088;28;20273;-72
2022/11/28 12:26:06;;;;;;;8.57;5.28;;;9.00;91.10;;;;;;5023556;28;20054;-71
2022/11/28 12:28:47;;;;;;;8.20;4.78;;;9.00;91.10;;;;;;5030218;28;20475;-72
2022/11/28 12:31:23;;;;;;;7.22;4.55;;;9.00;91.10;;;;;;5044325;28;20053;-71
2022/11/28 12:34:06;;;;;;;7.10;4.20;;;9.00;91.10;;;;;;4947794;28;20049;-72
2022/11/28 12:36:36;;;;;;;6.10;3.60;;;9.00;91.10;;;;;;5073401;28;20741;-72
2022/11/28 12:39:17;;;;;;;9.48;7.88;;;9.00;91.10;;;;;;5041077;28;21008;-72
2022/11/28 12:42:12;;;;;;;10.40;7.35;;;9.00;91.10;;;;;;5041121;28;20046;-72
2022/11/28 12:44:53;;;;;;;8.68;5.07;;;9.00;91.10;;;;;;5037879;28;20837;-72
2022/11/28 12:47:34;;;;;;;8.57;5.13;;;9.00;91.10;;;;;;5056686;28;20054;-71
2022/11/28 12:50:16;;;;;;;7.30;4.10;;;9.00;91.10;;;;;;5058825;28;20281;-71
2022/11/28 12:52:53;;;;;;;8.20;4.97;;;9.00;91.20;;;;;;5040823;28;20137;-71
2022/11/28 12:55:28;;;;;;;8.88;4.90;;;9.00;91.10;;;;;;5037495;28;20131;-72
2022/11/28 12:58:01;;;;;;;8.10;5.55;;;9.00;91.10;;;;;;5038060;28;20054;-72
2022/11/28 13:00:29;;;;;;;7.87;4.60;;;9.10;91.10;;;;;;5038922;28;20049;-71
2022/11/28 13:03:07;;;;;;;8.15;5.10;;;9.10;91.10;;;;;;5038578;28;21210;-72
2022/11/28 13:05:45;;;;;;;7.25;5.03;;;9.10;91.10;;;;;;5047424;28;20162;-71
2022/11/28 13:08:40;;;;;;;8.73;5.13;;;9.10;91.10;;;;;;5040989;28;20152;-72
2022/11/28 13:11:18;;;;;;;7.82;4.18;;;9.10;91.00;;;;;;5041772;28;20054;-71
2022/11/28 13:13:51;;;;;;;7.77;4.40;;;9.10;91.00;;;;;;5040187;28;20528;-71